Pomona, Missouri
Current Conditions -  °F | °C
As of 6:53 PM on Wednesday 26 Nov 2014 (Local Time) from KUNO Reporting Station
Overcast Overcast  
Wind Chill: 34°   Ceiling: 6500
Heat Index: 40°   Visibility: 10mi
Dew Point: 29°   Wind: 8mph
Humidity: 65%   Direction: 280°W
Pressure: 30.08"   Gusts: NA
Location:  36.87°N, 91.91°W
Report Text: KUNO 270053Z AUTO 28007KT 10SM SCT044 OVC065 04/M02 A3008 RMK AO2 SLP194 T00441017
Loading
Personal Weather Stations






























Interactive Weather Map New forecast layout! Learn more

10-Day Weather Forecast

Advertisements
Track Severe Weather on mobile